createdAt,value
2022-11-16T00:00:00.298Z,89.24
2022-11-16T00:02:31.412Z,89.26
2022-11-16T00:04:57.859Z,89.33
2022-11-16T00:07:24.353Z,89.54
2022-11-16T00:09:50.821Z,89.30
2022-11-16T00:12:17.293Z,89.46
2022-11-16T00:14:43.733Z,89.53
2022-11-16T00:17:10.200Z,89.60
2022-11-16T00:19:36.761Z,89.74
2022-11-16T00:22:03.233Z,89.46
2022-11-16T00:24:29.695Z,89.73
2022-11-16T00:26:56.187Z,89.69
2022-11-16T00:29:25.478Z,89.91
2022-11-16T00:31:53.844Z,89.62
2022-11-16T00:34:21.600Z,89.94
2022-11-16T00:36:48.754Z,89.63
2022-11-16T00:39:16.538Z,89.93
2022-11-16T00:41:45.684Z,89.53
2022-11-16T00:44:12.540Z,89.87
2022-11-16T00:46:39.485Z,89.94
2022-11-16T00:49:06.915Z,89.83
2022-11-16T00:51:34.464Z,89.66
2022-11-16T00:54:01.099Z,89.65
2022-11-16T00:56:27.979Z,89.80
2022-11-16T00:58:54.412Z,89.65
2022-11-16T01:01:21.034Z,89.56
2022-11-16T01:03:50.305Z,89.53
2022-11-16T01:06:17.234Z,89.79
2022-11-16T01:08:44.376Z,89.43
2022-11-16T01:11:14.084Z,89.79
2022-11-16T01:13:41.353Z,89.66
2022-11-16T01:16:07.872Z,89.58
2022-11-16T01:18:34.475Z,89.31
2022-11-16T01:21:01.194Z,89.46
2022-11-16T01:23:27.673Z,89.41
2022-11-16T01:25:58.294Z,89.58
2022-11-16T01:28:25.643Z,88.99
2022-11-16T01:30:52.102Z,89.02
2022-11-16T01:33:19.194Z,89.10
2022-11-16T01:35:45.666Z,89.48
2022-11-16T01:38:14.916Z,89.47
2022-11-16T01:40:41.566Z,89.56
2022-11-16T01:43:26.598Z,89.60
2022-11-16T01:45:59.328Z,89.37
2022-11-16T01:48:30.087Z,89.35
2022-11-16T01:50:57.770Z,89.35
2022-11-16T01:53:25.004Z,89.03
2022-11-16T01:55:55.358Z,89.72
2022-11-16T01:58:46.233Z,89.58
2022-11-16T02:01:25.278Z,89.36
2022-11-16T02:03:55.395Z,89.56
2022-11-16T02:06:37.660Z,89.24
2022-11-16T02:09:44.047Z,89.66
2022-11-16T02:12:19.745Z,89.69
2022-11-16T02:15:00.911Z,89.29
2022-11-16T02:17:40.472Z,89.18
2022-11-16T02:20:15.105Z,88.60
2022-11-16T02:23:00.211Z,88.73
2022-11-16T02:25:48.582Z,88.93
2022-11-16T02:28:21.155Z,88.52
2022-11-16T02:30:53.357Z,89.16
2022-11-16T02:33:25.493Z,88.86
2022-11-16T02:35:56.296Z,88.61
2022-11-16T02:38:28.088Z,88.82
2022-11-16T02:41:08.066Z,88.56
2022-11-16T02:43:41.044Z,89.29
2022-11-16T02:46:12.876Z,88.69
2022-11-16T02:48:45.269Z,89.47
2022-11-16T02:51:12.752Z,89.41
2022-11-16T02:53:50.410Z,89.42
2022-11-16T02:56:17.997Z,89.37
2022-11-16T02:58:46.526Z,89.40
2022-11-16T03:01:23.392Z,89.54
2022-11-16T03:04:01.787Z,89.56
2022-11-16T03:06:32.958Z,89.65
2022-11-16T03:09:08.678Z,89.24
2022-11-16T03:11:39.238Z,89.27
2022-11-16T03:14:11.948Z,89.64
2022-11-16T03:16:42.477Z,89.42
2022-11-16T03:19:12.526Z,89.11
2022-11-16T03:21:52.832Z,89.14
2022-11-16T03:24:20.458Z,89.46
2022-11-16T03:27:04.484Z,89.26
2022-11-16T03:29:35.374Z,89.67
2022-11-16T03:32:17.875Z,89.99
2022-11-16T03:34:56.161Z,89.22
2022-11-16T03:37:25.267Z,89.85
2022-11-16T03:39:53.872Z,89.70
2022-11-16T03:42:23.853Z,89.73
2022-11-16T03:44:50.693Z,89.64
2022-11-16T03:47:17.281Z,90.22
2022-11-16T03:49:46.608Z,90.21
2022-11-16T03:52:16.540Z,90.31
2022-11-16T03:54:43.793Z,90.12
2022-11-16T03:57:11.258Z,90.38
2022-11-16T03:59:37.732Z,89.87
2022-11-16T04:02:04.200Z,90.57
2022-11-16T04:04:31.116Z,90.51
2022-11-16T04:06:57.884Z,90.56
2022-11-16T04:09:24.363Z,90.87
2022-11-16T04:11:51.015Z,90.59
2022-11-16T04:14:20.926Z,90.98
2022-11-16T04:16:47.419Z,91.16
2022-11-16T04:19:13.863Z,90.94
2022-11-16T04:21:46.065Z,91.28
2022-11-16T04:24:21.610Z,91.10
2022-11-16T04:26:52.963Z,91.16
2022-11-16T04:29:19.808Z,90.95
2022-11-16T04:31:46.342Z,90.57
2022-11-16T04:34:12.840Z,90.50
2022-11-16T04:36:44.787Z,90.54
2022-11-16T04:39:12.029Z,91.03
2022-11-16T04:41:38.784Z,91.41
2022-11-16T04:44:05.648Z,91.27
2022-11-16T04:46:33.837Z,91.05
2022-11-16T04:49:00.448Z,91.62
2022-11-16T04:51:26.945Z,91.92
2022-11-16T04:53:53.492Z,91.84
2022-11-16T04:56:22.243Z,92.04
2022-11-16T04:58:49.055Z,91.79
2022-11-16T05:01:15.663Z,91.67
2022-11-16T05:03:42.892Z,91.60
2022-11-16T05:06:09.319Z,92.00
2022-11-16T05:08:36.089Z,91.60
2022-11-16T05:11:04.375Z,91.60
2022-11-16T05:13:31.770Z,91.81
2022-11-16T05:15:58.296Z,91.35
2022-11-16T05:18:25.616Z,91.48
2022-11-16T05:20:52.034Z,91.73
2022-11-16T05:23:18.673Z,91.90
2022-11-16T05:25:45.150Z,91.95
2022-11-16T05:28:11.925Z,91.74
2022-11-16T05:30:40.803Z,92.10
2022-11-16T05:33:07.702Z,91.94
2022-11-16T05:35:38.326Z,92.32
2022-11-16T05:38:04.860Z,91.46
2022-11-16T05:40:34.933Z,92.24
2022-11-16T05:43:01.445Z,92.22
2022-11-16T05:45:31.800Z,92.20
2022-11-16T05:48:00.038Z,92.41
2022-11-16T05:50:26.542Z,92.60
2022-11-16T05:53:04.946Z,92.27
2022-11-16T05:55:34.873Z,92.33
2022-11-16T05:58:01.847Z,92.72
2022-11-16T06:00:28.353Z,92.35
2022-11-16T06:02:55.370Z,92.65
2022-11-16T06:05:26.788Z,92.83
2022-11-16T06:07:54.394Z,92.69
2022-11-16T06:10:22.209Z,92.47
2022-11-16T06:12:50.823Z,93.39
2022-11-16T06:15:17.870Z,92.73
2022-11-16T06:17:44.496Z,92.86
2022-11-16T06:20:11.932Z,92.92
2022-11-16T06:22:39.267Z,92.68
2022-11-16T06:25:06.565Z,93.02
2022-11-16T06:27:37.281Z,92.95
2022-11-16T06:30:04.390Z,93.10
2022-11-16T06:32:32.976Z,93.13
2022-11-16T06:34:59.637Z,93.05
2022-11-16T06:37:26.413Z,93.30
2022-11-16T06:39:52.947Z,93.09
2022-11-16T06:42:19.446Z,93.34
2022-11-16T06:44:46.193Z,94.00
2022-11-16T06:47:15.373Z,93.97
2022-11-16T06:49:42.146Z,93.99
2022-11-16T06:52:15.883Z,93.44
2022-11-16T06:54:42.338Z,93.28
2022-11-16T06:57:08.822Z,93.29
2022-11-16T06:59:35.497Z,93.47
2022-11-16T07:02:02.005Z,93.47
2022-11-16T07:04:32.420Z,93.32
2022-11-16T07:06:59.281Z,92.92
2022-11-16T07:09:26.419Z,93.27
2022-11-16T07:11:53.038Z,93.12
2022-11-16T07:14:20.654Z,93.50
2022-11-16T07:16:47.158Z,93.19
2022-11-16T07:19:13.769Z,93.55
2022-11-16T07:21:41.160Z,93.03
2022-11-16T07:24:13.038Z,92.89
2022-11-16T07:26:39.555Z,93.06
2022-11-16T07:29:10.890Z,92.99
2022-11-16T07:31:42.111Z,92.65
2022-11-16T07:34:46.571Z,92.47
2022-11-16T07:37:15.722Z,92.42
2022-11-16T07:39:43.319Z,92.37
2022-11-16T07:42:09.950Z,91.96
2022-11-16T07:45:05.916Z,92.37
2022-11-16T07:47:37.514Z,92.63
2022-11-16T07:50:06.836Z,92.19
2022-11-16T07:52:35.218Z,92.43
2022-11-16T07:55:07.160Z,92.91
2022-11-16T07:57:34.383Z,92.48
2022-11-16T08:00:05.841Z,92.63
2022-11-16T08:02:45.042Z,92.65
2022-11-16T08:05:17.408Z,92.79
2022-11-16T08:07:44.304Z,92.22
2022-11-16T08:10:11.279Z,93.18
2022-11-16T08:12:38.889Z,92.69
2022-11-16T08:15:06.683Z,92.38
2022-11-16T08:17:33.185Z,92.21
2022-11-16T08:19:59.680Z,91.72
2022-11-16T08:22:26.205Z,91.70
2022-11-16T08:24:52.658Z,91.50
2022-11-16T08:27:19.109Z,91.54
2022-11-16T08:29:50.267Z,91.56
2022-11-16T08:32:16.723Z,91.42
2022-11-16T08:34:43.790Z,91.65
2022-11-16T08:37:10.486Z,91.39
2022-11-16T08:39:43.485Z,91.64
2022-11-16T08:42:09.987Z,91.71
2022-11-16T08:44:37.690Z,91.87
2022-11-16T08:47:08.857Z,91.79
2022-11-16T08:49:48.309Z,91.45
2022-11-16T08:52:16.912Z,91.92
2022-11-16T08:54:43.776Z,91.73
2022-11-16T08:57:10.838Z,91.72
2022-11-16T08:59:39.264Z,91.21
2022-11-16T09:02:10.367Z,90.99
2022-11-16T09:04:37.360Z,90.93
2022-11-16T09:07:03.997Z,91.01
2022-11-16T09:09:30.519Z,90.94
2022-11-16T09:11:57.035Z,91.29
2022-11-16T09:14:23.526Z,90.73
2022-11-16T09:16:49.938Z,91.09
2022-11-16T09:19:16.403Z,91.14
2022-11-16T09:21:43.100Z,90.98
2022-11-16T09:24:09.904Z,91.07
2022-11-16T09:26:36.351Z,90.64
2022-11-16T09:29:02.832Z,90.68
2022-11-16T09:31:32.413Z,90.83
2022-11-16T09:33:59.190Z,90.64
2022-11-16T09:36:27.644Z,90.71
2022-11-16T09:42:13.796Z,90.79
2022-11-16T09:45:04.763Z,90.77
2022-11-16T09:47:47.241Z,90.66
2022-11-16T09:50:45.982Z,90.35
2022-11-16T09:53:45.378Z,90.31
2022-11-16T09:56:22.635Z,90.29
2022-11-16T09:59:15.004Z,90.46
2022-11-16T10:01:54.996Z,90.32
2022-11-16T10:04:37.812Z,90.16
2022-11-16T10:07:12.202Z,89.64
2022-11-16T10:09:38.902Z,89.52
2022-11-16T10:12:23.741Z,89.18
2022-11-16T10:14:59.213Z,89.64
2022-11-16T10:17:49.846Z,89.01
2022-11-16T10:20:53.513Z,88.54
2022-11-16T10:23:29.479Z,89.02
2022-11-16T10:26:02.462Z,89.30
2022-11-16T10:28:49.862Z,88.30
2022-11-16T10:31:30.751Z,88.97
2022-11-16T10:34:01.543Z,88.60
2022-11-16T10:36:32.350Z,88.97
2022-11-16T10:39:00.324Z,88.40
2022-11-16T10:41:41.964Z,89.16
2022-11-16T10:44:31.710Z,88.48
2022-11-16T10:47:19.536Z,88.40
2022-11-16T10:49:53.378Z,88.97
2022-11-16T10:52:19.903Z,89.05
2022-11-16T10:54:46.304Z,88.52
2022-11-16T10:57:12.805Z,88.17
2022-11-16T10:59:43.547Z,87.93
2022-11-16T11:02:24.968Z,87.70
2022-11-16T11:05:03.712Z,87.62
2022-11-16T11:07:33.004Z,88.32
2022-11-16T11:09:59.545Z,87.45
2022-11-16T11:12:27.153Z,87.32
2022-11-16T11:15:06.654Z,87.47
2022-11-16T11:17:35.503Z,87.26
2022-11-16T11:20:04.983Z,87.54
2022-11-16T11:22:51.897Z,85.84
2022-11-16T11:25:30.453Z,85.65
2022-11-16T11:28:16.607Z,85.56
2022-11-16T11:31:03.140Z,86.33
2022-11-16T11:33:34.967Z,86.31
2022-11-16T11:36:20.703Z,85.21
2022-11-16T11:39:12.139Z,84.50
2022-11-16T11:41:44.435Z,85.49
2022-11-16T11:44:13.889Z,85.89
2022-11-16T11:47:35.190Z,85.28
2022-11-16T11:49:41.112Z,85.86
2022-11-16T11:52:19.019Z,85.52
2022-11-16T11:54:46.643Z,85.19
2022-11-16T11:57:16.591Z,84.91
2022-11-16T11:59:43.073Z,84.41
2022-11-16T12:02:43.065Z,84.28
2022-11-16T12:05:34.405Z,82.67
2022-11-16T12:08:27.037Z,82.64
2022-11-16T12:11:07.362Z,81.90
2022-11-16T12:13:58.721Z,81.84
2022-11-16T12:17:02.379Z,82.53
2022-11-16T12:19:40.631Z,81.22
2022-11-16T12:22:37.908Z,82.09
2022-11-16T12:25:17.564Z,82.01
2022-11-16T12:28:08.880Z,82.42
2022-11-16T12:30:52.344Z,81.95
2022-11-16T12:33:37.297Z,81.47
2022-11-16T12:36:28.808Z,80.27
2022-11-16T12:39:14.026Z,80.37
2022-11-16T12:42:02.083Z,80.21
2022-11-16T12:45:00.759Z,81.29
2022-11-16T12:47:56.630Z,80.82
2022-11-16T12:50:26.153Z,79.79
2022-11-16T12:52:52.516Z,80.42
2022-11-16T12:55:44.001Z,79.56
2022-11-16T12:58:34.762Z,78.13
2022-11-16T13:01:20.266Z,76.81
2022-11-16T13:03:54.351Z,77.58
2022-11-16T13:06:31.039Z,77.16
2022-11-16T13:09:06.670Z,77.92
2022-11-16T13:11:40.157Z,77.37
2022-11-16T13:14:19.378Z,77.54
2022-11-16T13:16:47.219Z,77.51
2022-11-16T13:19:16.420Z,76.75
2022-11-16T13:21:58.915Z,76.31
2022-11-16T13:24:52.453Z,76.13
2022-11-16T13:27:53.276Z,76.02
2022-11-16T13:30:26.969Z,76.55
2022-11-16T13:33:15.326Z,75.90
2022-11-16T13:35:41.806Z,75.75
2022-11-16T13:38:11.583Z,75.84
2022-11-16T13:40:38.212Z,75.96
2022-11-16T13:43:10.590Z,75.76
2022-11-16T13:45:51.168Z,74.62
2022-11-16T13:48:35.981Z,74.45
2022-11-16T13:51:20.170Z,74.51
2022-11-16T13:56:49.265Z,74.21
2022-11-16T13:59:16.430Z,75.44
2022-11-16T14:02:23.024Z,74.46
2022-11-16T14:04:59.407Z,75.13
2022-11-16T14:07:43.343Z,72.98
2022-11-16T14:10:11.737Z,74.25
2022-11-16T14:12:38.150Z,74.64
2022-11-16T14:15:15.641Z,73.14
2022-11-16T14:17:55.297Z,73.35
2022-11-16T14:20:30.792Z,74.37
2022-11-16T14:23:30.438Z,74.40
2022-11-16T14:26:24.372Z,74.51
2022-11-16T14:29:10.618Z,74.42
2022-11-16T14:31:54.019Z,74.00
2022-11-16T14:34:40.974Z,75.00
2022-11-16T14:37:22.541Z,74.05
2022-11-16T14:39:57.405Z,74.81
2022-11-16T14:42:38.174Z,74.37
2022-11-16T14:45:47.094Z,74.71
2022-11-16T14:48:19.931Z,75.26
2022-11-16T14:51:02.347Z,75.39
2022-11-16T14:53:29.379Z,76.22
2022-11-16T14:56:07.193Z,75.94
2022-11-16T14:58:33.709Z,75.88
2022-11-16T15:01:03.007Z,76.56
2022-11-16T15:03:45.553Z,76.87
2022-11-16T15:06:15.928Z,77.11
2022-11-16T15:08:48.018Z,77.06
2022-11-16T15:11:26.209Z,77.67
2022-11-16T15:13:54.262Z,77.41
2022-11-16T15:16:20.742Z,77.51
2022-11-16T15:19:01.590Z,78.79
2022-11-16T15:21:28.653Z,78.37
2022-11-16T15:24:23.435Z,78.86
2022-11-16T15:26:43.024Z,79.07
2022-11-16T15:29:16.514Z,79.25
2022-11-16T15:31:43.357Z,79.03
2022-11-16T15:34:19.817Z,79.75
2022-11-16T15:36:47.025Z,79.65
2022-11-16T15:39:26.961Z,80.26
2022-11-16T15:41:56.426Z,80.03
2022-11-16T15:44:28.034Z,80.44
2022-11-16T15:46:55.986Z,80.45
2022-11-16T15:49:36.053Z,81.25
2022-11-16T15:52:03.010Z,81.01
2022-11-16T15:54:35.065Z,80.71
2022-11-16T15:57:09.822Z,81.63
2022-11-16T15:59:37.246Z,81.19
2022-11-16T16:02:04.576Z,81.19
2022-11-16T16:04:31.176Z,81.94
2022-11-16T16:06:59.645Z,81.79
2022-11-16T16:09:38.199Z,82.33
2022-11-16T16:12:21.430Z,82.67
2022-11-16T16:14:49.831Z,82.29
2022-11-16T16:17:29.079Z,82.33
2022-11-16T16:20:06.579Z,83.19
2022-11-16T16:22:35.689Z,82.95
2022-11-16T16:25:04.019Z,83.03
2022-11-16T16:27:31.765Z,82.86
2022-11-16T16:30:02.716Z,83.08
2022-11-16T16:32:31.280Z,83.14
2022-11-16T16:34:59.673Z,83.79
2022-11-16T16:37:28.685Z,83.92
2022-11-16T16:39:55.247Z,84.03
2022-11-16T16:42:22.057Z,83.96
2022-11-16T16:44:49.251Z,84.17
2022-11-16T16:47:17.239Z,84.23
2022-11-16T16:49:43.756Z,83.91
2022-11-16T16:52:13.587Z,84.79
2022-11-16T16:54:40.814Z,84.64
2022-11-16T16:57:12.787Z,85.53
2022-11-16T16:59:39.275Z,84.60
2022-11-16T17:02:05.747Z,84.99
2022-11-16T17:04:32.646Z,84.83
2022-11-16T17:06:59.117Z,85.53
2022-11-16T17:09:25.597Z,85.87
2022-11-16T17:11:52.003Z,85.25
2022-11-16T17:14:18.473Z,86.13
2022-11-16T17:16:44.889Z,86.03
2022-11-16T17:19:11.375Z,86.33
2022-11-16T17:21:37.833Z,87.22
2022-11-16T17:24:04.763Z,87.21
2022-11-16T17:26:31.156Z,87.71
2022-11-16T17:28:58.134Z,86.87
2022-11-16T17:31:25.748Z,87.03
2022-11-16T17:33:52.512Z,87.43
2022-11-16T17:36:19.474Z,87.51
2022-11-16T17:38:46.243Z,88.00
2022-11-16T17:41:15.850Z,87.60
2022-11-16T17:43:43.828Z,88.40
2022-11-16T17:46:13.062Z,87.83
2022-11-16T17:48:41.599Z,88.33
2022-11-16T17:51:08.482Z,89.20
2022-11-16T17:53:36.103Z,88.51
2022-11-16T17:56:03.723Z,89.09
2022-11-16T17:58:30.839Z,89.00
2022-11-16T18:00:58.125Z,88.95
2022-11-16T18:03:25.099Z,88.95
2022-11-16T18:05:51.761Z,89.32
2022-11-16T18:08:18.214Z,88.78
2022-11-16T18:10:44.638Z,88.67
2022-11-16T18:13:11.116Z,88.45
2022-11-16T18:15:42.380Z,88.58
2022-11-16T18:18:09.063Z,89.21
2022-11-16T18:20:37.174Z,88.53
2022-11-16T18:23:04.495Z,88.35
2022-11-16T18:25:33.941Z,88.95
2022-11-16T18:28:00.396Z,88.28
2022-11-16T18:30:26.792Z,88.58
2022-11-16T18:32:53.259Z,88.57
2022-11-16T18:35:19.697Z,88.22
2022-11-16T18:37:46.152Z,88.28
2022-11-16T18:40:13.133Z,88.08
2022-11-16T18:42:39.815Z,88.80
2022-11-16T18:45:06.932Z,88.76
2022-11-16T18:47:33.390Z,87.73
2022-11-16T18:49:59.795Z,87.83
2022-11-16T18:52:26.256Z,87.78
2022-11-16T18:54:52.650Z,88.18
2022-11-16T18:57:19.165Z,88.13
2022-11-16T18:59:45.598Z,87.82
2022-11-16T19:02:12.342Z,87.99
2022-11-16T19:04:38.886Z,88.50
2022-11-16T19:07:05.804Z,87.90
2022-11-16T19:09:32.238Z,88.13
2022-11-16T19:11:58.710Z,88.44
2022-11-16T19:14:25.124Z,88.28
2022-11-16T19:16:56.917Z,88.23
2022-11-16T19:19:24.087Z,88.65
2022-11-16T19:21:50.499Z,88.90
2022-11-16T19:24:16.942Z,88.83
2022-11-16T19:26:43.390Z,88.59
2022-11-16T19:29:09.852Z,88.80
2022-11-16T19:31:36.306Z,89.00
2022-11-16T19:34:05.384Z,89.66
2022-11-16T19:36:33.420Z,89.26
2022-11-16T19:39:00.043Z,89.14
2022-11-16T19:41:27.618Z,89.85
2022-11-16T19:43:55.790Z,89.73
2022-11-16T19:46:22.990Z,89.64
2022-11-16T19:48:50.248Z,89.47
2022-11-16T19:51:19.548Z,89.88
2022-11-16T19:53:46.736Z,90.13
2022-11-16T19:56:15.212Z,89.99
2022-11-16T19:58:42.337Z,90.56
2022-11-16T20:01:23.340Z,90.95
2022-11-16T20:03:49.895Z,90.29
2022-11-16T20:06:18.156Z,91.07
2022-11-16T20:08:52.769Z,91.46
2022-11-16T20:11:24.759Z,91.50
2022-11-16T20:13:53.234Z,92.00
2022-11-16T20:16:21.891Z,92.14
2022-11-16T20:18:49.451Z,92.17
2022-11-16T20:21:21.938Z,92.41
2022-11-16T20:23:49.159Z,93.28
2022-11-16T20:26:15.731Z,93.21
2022-11-16T20:28:43.398Z,93.25
2022-11-16T20:31:15.472Z,93.66
2022-11-16T20:33:43.104Z,94.07
2022-11-16T20:36:11.669Z,94.16
2022-11-16T20:38:39.096Z,94.59
2022-11-16T20:41:13.974Z,94.97
2022-11-16T20:43:41.499Z,95.67
2022-11-16T20:46:09.702Z,95.72
2022-11-16T20:48:37.221Z,96.00
2022-11-16T20:51:04.671Z,96.07
2022-11-16T20:53:31.675Z,96.15
2022-11-16T20:55:58.457Z,95.64
2022-11-16T20:58:25.234Z,94.06
2022-11-16T21:00:51.659Z,94.47
2022-11-16T21:03:18.216Z,94.79
2022-11-16T21:05:46.390Z,94.99
2022-11-16T21:08:13.037Z,94.83
2022-11-16T21:10:39.678Z,94.65
2022-11-16T21:13:06.983Z,93.71
2022-11-16T21:15:33.454Z,94.30
2022-11-16T21:17:59.914Z,94.58
2022-11-16T21:20:28.125Z,93.26
2022-11-16T21:22:55.114Z,94.63
2022-11-16T21:25:21.630Z,94.17
2022-11-16T21:27:48.080Z,93.70
2022-11-16T21:30:14.549Z,94.46
2022-11-16T21:32:41.008Z,93.92
2022-11-16T21:35:07.784Z,94.06
2022-11-16T21:37:34.252Z,94.40
2022-11-16T21:40:00.758Z,93.33
2022-11-16T21:42:27.450Z,94.47
2022-11-16T21:44:53.871Z,93.20
2022-11-16T21:47:21.115Z,93.70
2022-11-16T21:50:08.685Z,92.84
2022-11-16T21:52:34.044Z,93.73
2022-11-16T21:55:00.471Z,93.87
2022-11-16T21:57:26.963Z,94.28
2022-11-16T21:59:53.434Z,93.85
2022-11-16T22:02:19.858Z,94.88
2022-11-16T22:04:46.262Z,95.03
2022-11-16T22:07:15.621Z,94.43
2022-11-16T22:09:42.099Z,95.10
2022-11-16T22:12:08.486Z,95.19
2022-11-16T22:14:34.955Z,95.76
2022-11-16T22:17:01.340Z,95.49
2022-11-16T22:19:27.775Z,96.02
2022-11-16T22:21:54.218Z,96.66
2022-11-16T22:24:20.761Z,96.68
2022-11-16T22:26:47.207Z,97.11
2022-11-16T22:29:13.668Z,96.77
2022-11-16T22:31:40.059Z,96.97
2022-11-16T22:34:06.504Z,96.47
2022-11-16T22:36:32.935Z,97.32
2022-11-16T22:39:00.256Z,97.49
2022-11-16T22:41:26.679Z,98.41
2022-11-16T22:43:53.176Z,97.67
2022-11-16T22:46:19.615Z,98.12
2022-11-16T22:48:46.083Z,98.01
2022-11-16T22:51:24.972Z,98.45
2022-11-16T22:53:56.089Z,98.02
2022-11-16T22:56:23.146Z,98.71
2022-11-16T22:58:50.038Z,98.58
2022-11-16T23:01:16.587Z,98.84
2022-11-16T23:03:43.130Z,99.30
2022-11-16T23:06:09.749Z,99.47
2022-11-16T23:08:36.707Z,99.56
2022-11-16T23:11:14.743Z,99.68
2022-11-16T23:13:41.191Z,99.54
2022-11-16T23:16:07.777Z,100.00
2022-11-16T23:18:34.250Z,100.00
2022-11-16T23:21:00.646Z,99.78
2022-11-16T23:23:27.093Z,99.84
2022-11-16T23:25:53.531Z,99.81
2022-11-16T23:28:20.275Z,99.59
2022-11-16T23:30:46.691Z,100.00
2022-11-16T23:33:13.454Z,100.00
2022-11-16T23:35:39.898Z,100.00
2022-11-16T23:38:07.610Z,100.00
2022-11-16T23:40:36.555Z,100.00
2022-11-16T23:43:03.789Z,100.00
2022-11-16T23:45:30.229Z,100.00
2022-11-16T23:47:56.709Z,100.00
2022-11-16T23:50:23.282Z,100.00
2022-11-16T23:52:49.805Z,100.00
2022-11-16T23:55:16.380Z,100.00
2022-11-16T23:57:42.844Z,100.00
